createdAt,value
2019-02-20T00:00:42.021Z,74.50
2019-02-20T00:05:47.481Z,74.80
2019-02-20T00:10:52.901Z,74.80
2019-02-20T00:15:58.264Z,74.60
2019-02-20T00:21:03.638Z,74.50
2019-02-20T00:26:09.160Z,74.40
2019-02-20T00:31:14.599Z,74.00
2019-02-20T00:36:20.026Z,73.60
2019-02-20T00:41:25.495Z,73.60
2019-02-20T00:46:39.375Z,73.70
2019-02-20T00:52:06.143Z,73.70
2019-02-20T00:57:11.588Z,73.90
2019-02-20T01:02:17.045Z,74.20
2019-02-20T01:07:22.587Z,74.50
2019-02-20T01:12:27.965Z,74.70
2019-02-20T01:17:33.299Z,74.70
2019-02-20T01:22:38.773Z,75.10
2019-02-20T01:27:44.148Z,75.30
2019-02-20T01:32:49.592Z,75.50
2019-02-20T01:37:55.176Z,75.90
2019-02-20T01:43:00.598Z,75.90
2019-02-20T01:48:06.018Z,76.30
2019-02-20T01:53:11.401Z,76.00
2019-02-20T01:58:16.746Z,76.20
2019-02-20T02:03:22.353Z,76.40
2019-02-20T02:08:27.823Z,76.50
2019-02-20T02:13:33.359Z,76.60
2019-02-20T02:18:38.723Z,76.90
2019-02-20T02:23:44.156Z,77.10
2019-02-20T02:28:49.585Z,76.90
2019-02-20T02:33:54.963Z,77.20
2019-02-20T02:39:00.365Z,77.20
2019-02-20T02:44:05.851Z,77.40
2019-02-20T02:49:11.231Z,77.50
2019-02-20T02:54:16.595Z,77.50
2019-02-20T02:59:22.073Z,77.70
2019-02-20T03:04:27.530Z,77.70
2019-02-20T03:09:32.938Z,77.50
2019-02-20T03:14:38.292Z,77.50
2019-02-20T03:19:43.773Z,77.30
2019-02-20T03:24:49.411Z,77.20
2019-02-20T03:29:54.822Z,77.20
2019-02-20T03:35:00.290Z,77.30
2019-02-20T03:40:06.181Z,77.30
2019-02-20T03:45:11.667Z,77.10
2019-02-20T03:50:17.133Z,77.00
2019-02-20T03:55:22.503Z,76.90
2019-02-20T04:00:27.900Z,77.00
2019-02-20T04:05:33.362Z,77.10
2019-02-20T04:10:38.774Z,77.20
2019-02-20T04:15:44.300Z,77.20
2019-02-20T04:20:49.709Z,77.20
2019-02-20T04:25:55.123Z,77.10
2019-02-20T04:31:00.532Z,77.00
2019-02-20T04:36:05.946Z,76.80
2019-02-20T04:41:11.452Z,76.60
2019-02-20T04:46:16.845Z,76.40
2019-02-20T04:51:22.276Z,76.30
2019-02-20T04:56:27.673Z,76.10
2019-02-20T05:01:33.121Z,76.00
2019-02-20T05:06:38.626Z,76.00
2019-02-20T05:11:44.350Z,75.90
2019-02-20T05:16:49.849Z,75.80
2019-02-20T05:21:55.270Z,75.80
2019-02-20T05:27:00.783Z,75.70
2019-02-20T05:32:06.204Z,75.80
2019-02-20T05:37:11.711Z,75.70
2019-02-20T05:42:17.115Z,75.70
2019-02-20T05:47:22.479Z,75.60
2019-02-20T05:52:28.003Z,75.50
2019-02-20T05:57:33.404Z,75.70
2019-02-20T06:02:38.893Z,75.80
2019-02-20T06:07:44.451Z,76.20
2019-02-20T06:12:49.857Z,76.40
2019-02-20T06:17:55.216Z,76.60
2019-02-20T06:23:00.714Z,76.90
2019-02-20T06:28:06.087Z,77.10
2019-02-20T06:33:11.510Z,77.10
2019-02-20T06:38:16.883Z,77.20
2019-02-20T06:43:22.301Z,77.40
2019-02-20T06:48:27.947Z,77.70
2019-02-20T06:53:33.437Z,78.00
2019-02-20T06:58:38.893Z,78.30
2019-02-20T07:03:44.325Z,78.20
2019-02-20T07:10:00.781Z,78.40
2019-02-20T07:16:11.881Z,78.40
2019-02-20T07:22:27.205Z,78.20
2019-02-20T07:28:27.326Z,77.70
2019-02-20T07:33:32.999Z,77.10
2019-02-20T07:38:38.803Z,76.20
2019-02-20T07:43:44.309Z,74.80
2019-02-20T07:48:49.701Z,73.50
2019-02-20T07:53:55.092Z,71.80
2019-02-20T07:59:00.599Z,70.60
2019-02-20T08:04:06.101Z,69.80
2019-02-20T08:09:11.551Z,68.30
2019-02-20T08:14:17.094Z,64.10
2019-02-20T08:19:22.551Z,58.70
2019-02-20T08:24:27.932Z,57.10
2019-02-20T08:29:33.391Z,56.10
2019-02-20T08:34:38.863Z,52.10
2019-02-20T08:39:44.335Z,48.00
2019-02-20T08:44:49.861Z,44.60
2019-02-20T08:49:55.357Z,41.00
2019-02-20T08:55:00.842Z,36.80
2019-02-20T09:00:07.225Z,35.90
2019-02-20T09:05:12.779Z,36.10
2019-02-20T09:10:18.494Z,37.20
2019-02-20T09:15:23.916Z,38.00
2019-02-20T09:20:29.336Z,37.90
2019-02-20T09:25:41.387Z,36.40
2019-02-20T09:30:41.956Z,34.20
2019-02-20T09:35:47.458Z,33.40
2019-02-20T09:40:52.861Z,33.10
2019-02-20T09:45:58.355Z,33.50
2019-02-20T09:51:03.807Z,33.10
2019-02-20T09:56:09.239Z,32.70
2019-02-20T10:01:14.719Z,32.00
2019-02-20T10:06:20.140Z,30.80
2019-02-20T10:11:25.521Z,30.80
2019-02-20T10:16:32.417Z,33.20
2019-02-20T10:21:37.805Z,35.70
2019-02-20T10:26:43.246Z,38.50
2019-02-20T10:31:49.225Z,39.90
2019-02-20T10:36:54.747Z,41.50
2019-02-20T10:42:00.216Z,42.90
2019-02-20T10:47:05.633Z,43.90
2019-02-20T10:52:11.183Z,44.70
2019-02-20T10:57:16.541Z,44.90
2019-02-20T11:02:21.922Z,45.50
2019-02-20T11:07:27.334Z,46.40
2019-02-20T11:12:32.991Z,47.30
2019-02-20T11:17:38.607Z,47.90
2019-02-20T11:22:44.026Z,48.40
2019-02-20T11:27:49.586Z,48.20
2019-02-20T11:32:55.024Z,47.70
2019-02-20T11:38:00.683Z,47.50
2019-02-20T11:43:06.343Z,47.50
2019-02-20T11:48:11.789Z,48.00
2019-02-20T11:53:17.188Z,48.30
2019-02-20T11:58:22.667Z,48.90
2019-02-20T12:03:29.931Z,49.50
2019-02-20T12:08:35.399Z,49.70
2019-02-20T12:13:40.791Z,49.40
2019-02-20T12:18:46.290Z,49.20
2019-02-20T12:23:51.823Z,49.00
2019-02-20T12:28:57.438Z,48.00
2019-02-20T12:34:03.050Z,46.60
2019-02-20T12:39:08.707Z,46.60
2019-02-20T12:44:14.113Z,46.00
2019-02-20T12:49:19.605Z,45.80
2019-02-20T12:54:24.961Z,45.70
2019-02-20T12:59:30.466Z,45.80
2019-02-20T13:04:36.010Z,45.90
2019-02-20T13:09:41.381Z,46.10
2019-02-20T13:14:46.797Z,46.10
2019-02-20T13:19:52.408Z,46.00
2019-02-20T13:24:58.044Z,46.30
2019-02-20T13:30:03.632Z,45.80
2019-02-20T13:35:09.249Z,45.50
2019-02-20T13:40:14.660Z,45.40
2019-02-20T13:45:20.026Z,45.10
2019-02-20T13:50:25.568Z,45.30
2019-02-20T13:55:34.497Z,45.80
2019-02-20T14:00:37.950Z,46.40
2019-02-20T14:05:43.473Z,46.70
2019-02-20T14:10:49.192Z,46.90
2019-02-20T14:15:56.714Z,47.00
2019-02-20T14:21:02.203Z,47.80
2019-02-20T14:26:07.769Z,47.30
2019-02-20T14:31:13.445Z,47.30
2019-02-20T14:36:19.126Z,47.20
2019-02-20T14:41:24.653Z,47.10
2019-02-20T14:46:30.153Z,47.20
2019-02-20T14:51:35.566Z,47.50
2019-02-20T14:56:41.130Z,47.90
2019-02-20T15:01:46.564Z,48.00
2019-02-20T15:06:51.958Z,47.90
2019-02-20T15:11:57.429Z,48.50
2019-02-20T15:17:02.803Z,48.90
2019-02-20T15:22:08.469Z,49.20
2019-02-20T15:27:13.966Z,49.40
2019-02-20T15:32:19.344Z,49.80
2019-02-20T15:37:24.941Z,50.30
2019-02-20T15:42:30.497Z,50.50
2019-02-20T15:47:35.873Z,50.70
2019-02-20T15:52:41.239Z,50.80
2019-02-20T15:57:46.897Z,51.00
2019-02-20T16:02:52.451Z,51.20
2019-02-20T16:07:57.935Z,51.40
2019-02-20T16:13:03.300Z,51.80
2019-02-20T16:18:09.127Z,52.00
2019-02-20T16:23:14.578Z,52.40
2019-02-20T16:28:20.181Z,52.70
2019-02-20T16:33:25.691Z,53.10
2019-02-20T16:38:31.114Z,53.40
2019-02-20T16:43:36.698Z,53.70
2019-02-20T16:48:43.222Z,54.10
2019-02-20T16:53:48.671Z,54.50
2019-02-20T16:58:54.099Z,54.80
2019-02-20T17:04:01.639Z,55.30
2019-02-20T17:09:12.510Z,56.50
2019-02-20T17:14:22.863Z,56.20
2019-02-20T17:19:32.556Z,56.70
2019-02-20T17:24:43.450Z,57.20
2019-02-20T17:29:53.724Z,57.60
2019-02-20T17:35:00.638Z,58.00
2019-02-20T17:40:08.594Z,58.40
2019-02-20T17:45:14.490Z,58.80
2019-02-20T17:50:20.388Z,59.20
2019-02-20T17:55:25.905Z,59.60
2019-02-20T18:00:32.103Z,60.10
2019-02-20T18:05:37.487Z,60.60
2019-02-20T18:10:43.000Z,61.10
2019-02-20T18:15:48.629Z,61.80
2019-02-20T18:20:54.221Z,62.30
2019-02-20T18:25:59.857Z,63.00
2019-02-20T18:31:05.507Z,63.60
2019-02-20T18:36:11.738Z,64.20
2019-02-20T18:41:17.257Z,64.70
2019-02-20T18:46:22.827Z,65.30
2019-02-20T18:51:28.245Z,65.70
2019-02-20T18:56:34.223Z,66.30
2019-02-20T19:01:39.882Z,66.90
2019-02-20T19:06:45.373Z,67.20
2019-02-20T19:12:46.785Z,67.70
2019-02-20T19:18:44.666Z,68.10
2019-02-20T19:25:26.550Z,68.50
2019-02-20T19:31:35.812Z,68.90
2019-02-20T19:37:28.855Z,69.30
2019-02-20T19:43:30.817Z,69.60
2019-02-20T19:49:22.531Z,70.00
2019-02-20T19:54:50.326Z,70.10
2019-02-20T20:01:04.601Z,70.50
2019-02-20T20:06:41.648Z,70.80
2019-02-20T20:12:39.632Z,71.30
2019-02-20T20:18:52.439Z,71.50
2019-02-20T20:24:39.307Z,71.70
2019-02-20T20:30:29.189Z,72.00
2019-02-20T20:36:15.610Z,72.20
2019-02-20T20:42:39.647Z,72.40
2019-02-20T20:48:14.692Z,72.50
2019-02-20T20:54:21.944Z,72.70
2019-02-20T21:00:20.707Z,73.00
2019-02-20T21:06:18.324Z,73.70
2019-02-20T21:12:21.952Z,73.50
2019-02-20T21:18:48.305Z,73.40
2019-02-20T21:25:33.097Z,73.50
2019-02-20T21:31:13.287Z,73.80
2019-02-20T21:36:57.898Z,74.20
2019-02-20T21:42:56.414Z,74.20
2019-02-20T21:48:52.113Z,74.10
2019-02-20T21:54:37.271Z,74.40
2019-02-20T22:00:35.864Z,74.50
2019-02-20T22:06:33.438Z,74.20
2019-02-20T22:12:15.284Z,74.10
2019-02-20T22:18:14.842Z,74.00
2019-02-20T22:24:05.900Z,74.20
2019-02-20T22:29:52.379Z,74.20
2019-02-20T22:35:55.773Z,74.50
2019-02-20T22:42:22.466Z,74.70
2019-02-20T22:48:31.657Z,74.50
2019-02-20T22:54:05.521Z,74.60
2019-02-20T23:00:06.578Z,74.90
2019-02-20T23:06:14.967Z,75.00
2019-02-20T23:12:02.435Z,75.20
2019-02-20T23:17:07.964Z,75.40
2019-02-20T23:22:13.531Z,75.60
2019-02-20T23:27:19.070Z,75.80
2019-02-20T23:32:24.535Z,75.90
2019-02-20T23:37:30.084Z,75.50
2019-02-20T23:42:35.583Z,75.30
2019-02-20T23:47:41.025Z,75.00
2019-02-20T23:52:46.557Z,74.60
2019-02-20T23:57:52.002Z,74.60
